Time;durP1;ratioP1;P1;durP2;ratioP2;P2;SDS_P1;SDS_P2;PMS_P1;PMS_P2;Temp;Humidity;BMP_temperature;BMP_pressure;BME280_temperature;BME280_humidity;BME280_pressure;Samples;Min_cycle;Max_cycle;Signal;HPM_P1;HPM_P2
2023/03/22 00:01:35;;;;;;;22.25;14.98;;;;;;;8.84;77.78;100274.81;5061397;28;20033;-63
2023/03/22 00:04:01;;;;;;;27.55;15.77;;;;;;;8.72;78.00;100265.13;5048189;28;20421;-63
2023/03/22 00:06:26;;;;;;;22.33;16.67;;;;;;;8.80;78.80;100276.03;5061723;28;20086;-63
2023/03/22 00:08:52;;;;;;;22.70;15.80;;;;;;;8.78;79.63;100273.47;5053059;28;20033;-63
2023/03/22 00:11:20;;;;;;;23.52;16.58;;;;;;;8.80;79.98;100270.69;5047932;28;20054;-63
2023/03/22 00:13:46;;;;;;;25.13;16.80;;;;;;;8.81;81.05;100267.88;5060882;28;20494;-62
2023/03/22 00:16:13;;;;;;;27.73;18.50;;;;;;;8.73;81.21;100245.41;5047873;28;20068;-63
2023/03/22 00:18:39;;;;;;;25.05;17.73;;;;;;;8.87;81.81;100269.22;5047812;28;20031;-63
2023/03/22 00:21:05;;;;;;;26.05;17.27;;;;;;;8.86;82.52;100263.03;5048202;28;20036;-63
2023/03/22 00:23:30;;;;;;;24.10;16.73;;;;;;;8.92;83.46;100272.38;5047730;28;20497;-63
2023/03/22 00:25:56;;;;;;;22.13;16.95;;;;;;;8.95;83.75;100280.13;5048052;28;20021;-62
2023/03/22 00:28:22;;;;;;;25.88;17.95;;;;;;;8.92;83.63;100275.91;5048412;28;20037;-63
2023/03/22 00:30:53;;;;;;;21.90;17.58;;;;;;;8.92;83.87;100277.72;5047786;28;20107;-63
2023/03/22 00:33:19;;;;;;;23.45;17.45;;;;;;;8.77;84.00;100249.56;5047653;28;20091;-63
2023/03/22 00:35:58;;;;;;;26.02;18.63;;;;;;;8.89;83.68;100269.94;5060632;28;20024;-63
2023/03/22 00:38:25;;;;;;;26.55;17.02;;;;;;;8.84;83.63;100272.16;5050676;28;20036;-63
2023/03/22 00:40:50;;;;;;;23.20;17.35;;;;;;;8.78;83.60;100262.78;5057364;28;20038;-63
2023/03/22 00:43:16;;;;;;;23.00;17.13;;;;;;;8.75;84.25;100268.41;5054025;28;20025;-63
2023/03/22 00:45:41;;;;;;;23.83;17.40;;;;;;;8.72;84.09;100271.31;5047271;28;20013;-62
2023/03/22 00:48:09;;;;;;;24.95;17.80;;;;;;;8.63;84.81;100256.03;5047331;28;20029;-63
2023/03/22 00:50:37;;;;;;;24.73;17.38;;;;;;;8.66;84.71;100268.28;5047681;28;20025;-63
2023/03/22 00:53:03;;;;;;;28.00;18.50;;;;;;;8.57;83.94;100263.66;5061133;28;20024;-63
2023/03/22 00:55:28;;;;;;;23.40;17.02;;;;;;;8.54;83.83;100272.78;5053694;28;20032;-70
2023/03/22 00:57:54;;;;;;;23.38;17.58;;;;;;;8.49;83.58;100266.97;5056154;28;20039;-69
2023/03/22 01:00:19;;;;;;;21.23;16.17;;;;;;;8.45;84.36;100270.03;5056383;28;20029;-69
2023/03/22 01:02:45;;;;;;;26.15;17.48;;;;;;;8.40;83.91;100270.38;5053753;28;20096;-69
2023/03/22 01:05:14;;;;;;;25.98;17.38;;;;;;;8.29;84.20;100256.19;5062868;28;20583;-69
2023/03/22 01:07:43;;;;;;;24.67;18.35;;;;;;;8.23;84.60;100260.19;5063816;28;20245;-69
2023/03/22 01:10:11;;;;;;;22.33;16.75;;;;;;;8.25;84.22;100268.91;5061809;28;20502;-70
2023/03/22 01:12:36;;;;;;;26.05;17.48;;;;;;;8.20;84.96;100264.88;5059172;28;20478;-69
2023/03/22 01:15:04;;;;;;;25.33;17.13;;;;;;;8.13;85.02;100256.47;5061856;28;20048;-69
2023/03/22 01:17:29;;;;;;;26.10;16.92;;;;;;;8.12;85.61;100264.63;5050685;28;20032;-69
2023/03/22 01:19:55;;;;;;;25.80;17.20;;;;;;;8.07;85.64;100259.66;5053051;28;20127;-62
2023/03/22 01:22:20;;;;;;;23.52;17.02;;;;;;;7.96;85.53;100250.78;5052018;28;20103;-62
2023/03/22 01:24:47;;;;;;;22.48;16.48;;;;;;;8.02;86.45;100266.31;5063385;28;20574;-62
2023/03/22 01:27:13;;;;;;;21.90;16.15;;;;;;;7.95;86.68;100257.94;5059864;28;20032;-69
2023/03/22 01:29:38;;;;;;;25.48;16.75;;;;;;;7.92;87.36;100257.31;5059320;28;20470;-69
2023/03/22 01:32:04;;;;;;;24.80;16.80;;;;;;;7.91;87.82;100258.31;5064344;28;20029;-70
2023/03/22 01:34:30;;;;;;;23.27;16.73;;;;;;;7.85;88.34;100250.75;5052570;28;20032;-62
2023/03/22 01:36:55;;;;;;;23.48;17.05;;;;;;;7.83;89.09;100258.88;5049604;28;20063;-62
2023/03/22 01:39:21;;;;;;;23.45;16.10;;;;;;;7.80;89.04;100263.63;5046510;28;20056;-62
2023/03/22 01:41:46;;;;;;;24.90;16.27;;;;;;;7.75;90.02;100263.97;5057227;28;20041;-63
2023/03/22 01:44:13;;;;;;;21.70;15.93;;;;;;;7.76;90.20;100263.00;5046925;28;20094;-63
2023/03/22 01:46:44;;;;;;;23.70;16.42;;;;;;;7.70;90.85;100257.31;5066798;28;20151;-62
2023/03/22 01:49:24;;;;;;;26.25;17.27;;;;;;;7.73;91.62;100259.72;5056161;28;20111;-62
2023/03/22 01:51:52;;;;;;;23.98;17.13;;;;;;;7.73;91.68;100265.06;5064952;28;20028;-63
2023/03/22 01:54:37;;;;;;;22.48;16.02;;;;;;;7.68;92.01;100257.41;5064093;28;20028;-69
2023/03/22 01:57:03;;;;;;;24.98;15.77;;;;;;;7.68;92.28;100259.22;5056201;28;20028;-69
2023/03/22 01:59:30;;;;;;;22.20;16.48;;;;;;;7.67;93.12;100261.03;5061424;28;20033;-70
2023/03/22 02:01:58;;;;;;;22.58;16.58;;;;;;;7.56;93.30;100253.00;5054748;28;20036;-69
2023/03/22 02:04:33;;;;;;;22.48;16.33;;;;;;;7.58;93.65;100250.22;5054125;28;20502;-69
2023/03/22 02:07:01;;;;;;;23.17;16.15;;;;;;;7.58;93.68;100261.72;5055109;28;20028;-68
2023/03/22 02:09:28;;;;;;;23.80;16.63;;;;;;;7.56;94.00;100262.81;5061392;28;20060;-69
2023/03/22 02:12:12;;;;;;;24.83;16.45;;;;;;;7.54;93.93;100270.94;5060964;28;20696;-70
2023/03/22 02:15:08;;;;;;;22.97;16.10;;;;;;;7.54;94.39;100275.47;5055139;28;20041;-68
2023/03/22 02:17:37;;;;;;;22.95;15.63;;;;;;;7.53;94.43;100279.06;5059390;28;20056;-69
2023/03/22 02:20:40;;;;;;;23.95;15.90;;;;;;;7.52;94.96;100288.06;5053638;28;20503;-69
2023/03/22 02:23:27;;;;;;;21.75;15.85;;;;;;;7.46;94.94;100276.03;5057672;28;20058;-68
2023/03/22 02:26:04;;;;;;;20.63;14.38;;;;;;;7.43;94.13;100283.41;5057190;28;20387;-68
2023/03/22 02:29:11;;;;;;;24.73;16.13;;;;;;;7.37;93.86;100283.88;5055632;28;20033;-68
2023/03/22 02:31:51;;;;;;;21.65;15.20;;;;;;;7.32;92.96;100291.38;5017772;28;20033;-68
2023/03/22 02:34:55;;;;;;;21.40;15.95;;;;;;;7.26;93.42;100282.03;5011653;28;20041;-69
2023/03/22 02:37:20;;;;;;;20.98;15.35;;;;;;;7.22;93.05;100295.69;5009031;28;20554;-68
2023/03/22 02:39:53;;;;;;;24.42;15.88;;;;;;;7.15;92.71;100289.13;5013096;28;20044;-69
2023/03/22 02:42:18;;;;;;;22.13;15.32;;;;;;;7.12;92.95;100294.69;5035344;28;20127;-69
2023/03/22 02:44:57;;;;;;;21.00;15.63;;;;;;;7.07;92.43;100298.50;5059356;28;20150;-69
2023/03/22 02:47:39;;;;;;;25.95;16.33;;;;;;;6.99;92.69;100286.72;5048917;28;20390;-69
2023/03/22 02:50:18;;;;;;;22.65;15.63;;;;;;;6.94;92.49;100294.22;5055947;28;20037;-69
2023/03/22 02:52:53;;;;;;;24.13;15.48;;;;;;;6.92;92.53;100302.31;5051057;28;20033;-69
2023/03/22 02:55:58;;;;;;;21.80;15.27;;;;;;;6.85;92.36;100292.22;5058860;28;20557;-69
2023/03/22 02:58:35;;;;;;;;;;;;;;;6.78;92.04;100289.13;5056987;28;20037;-69
2023/03/22 03:01:06;;;;;;;20.73;14.18;;;;;;;6.75;92.44;100289.34;5052933;28;19924;-69
2023/03/22 03:03:36;;;;;;;23.20;15.38;;;;;;;6.69;92.58;100291.63;5059664;28;20036;-69
2023/03/22 03:06:08;;;;;;;19.67;14.55;;;;;;;6.66;92.01;100291.84;5046066;28;20060;-69
2023/03/22 03:08:36;;;;;;;21.80;15.65;;;;;;;6.60;92.31;100290.47;5047997;28;20060;-62
2023/03/22 03:11:01;;;;;;;23.65;14.80;;;;;;;6.58;92.23;100296.91;5062985;28;20041;-63
2023/03/22 03:13:27;;;;;;;21.35;15.10;;;;;;;6.49;92.79;100290.38;5056056;28;20086;-63
2023/03/22 03:15:58;;;;;;;23.10;15.68;;;;;;;6.50;93.06;100300.09;5054956;28;20499;-62
2023/03/22 03:18:45;;;;;;;21.58;15.55;;;;;;;6.47;93.42;100297.66;5069090;28;20058;-62
2023/03/22 03:21:33;;;;;;;22.40;15.65;;;;;;;6.44;93.79;100311.19;5053803;28;20028;-63
2023/03/22 03:24:16;;;;;;;21.45;14.93;;;;;;;6.38;93.63;100311.63;5051532;28;20060;-63
2023/03/22 03:27:14;;;;;;;19.88;14.80;;;;;;;6.32;92.98;100322.69;5051323;28;20064;-63
2023/03/22 03:30:07;;;;;;;21.35;14.93;;;;;;;6.24;93.48;100317.06;5049163;28;20078;-62
2023/03/22 03:32:40;;;;;;;22.95;14.60;;;;;;;6.19;93.97;100313.03;5049053;28;20067;-63
2023/03/22 03:35:09;;;;;;;23.90;15.23;;;;;;;6.15;93.70;100323.03;5048871;28;20032;-62
2023/03/22 03:37:40;;;;;;;21.33;15.73;;;;;;;6.10;92.81;100317.16;5047593;28;20024;-63
2023/03/22 03:40:22;;;;;;;25.38;16.15;;;;;;;6.08;92.48;100321.75;5048894;28;20112;-63
2023/03/22 03:42:51;;;;;;;21.02;14.65;;;;;;;5.99;92.13;100318.88;5048179;28;20368;-63
2023/03/22 03:45:18;;;;;;;22.63;16.00;;;;;;;6.02;92.38;100330.16;5061900;28;20017;-62
2023/03/22 03:47:45;;;;;;;22.15;15.18;;;;;;;5.98;93.06;100335.81;5046182;28;20493;-62
2023/03/22 03:50:15;;;;;;;21.50;15.45;;;;;;;5.87;93.99;100317.06;5048631;28;20112;-63
2023/03/22 03:52:41;;;;;;;24.08;15.98;;;;;;;5.90;94.37;100327.50;5047887;28;20021;-63
2023/03/22 03:55:07;;;;;;;22.70;15.65;;;;;;;5.85;94.66;100319.84;5047140;28;20047;-62
2023/03/22 03:57:32;;;;;;;24.65;17.58;;;;;;;5.85;94.53;100333.16;5067801;28;20032;-62
2023/03/22 03:59:58;;;;;;;24.02;15.57;;;;;;;5.82;94.53;100337.81;5057800;28;20430;-62
2023/03/22 04:02:23;;;;;;;20.67;14.68;;;;;;;5.79;94.79;100333.53;5053653;28;20051;-63
2023/03/22 04:04:49;;;;;;;23.70;16.08;;;;;;;5.75;94.69;100332.03;5047346;28;20025;-63
2023/03/22 04:07:14;;;;;;;21.85;16.25;;;;;;;5.73;95.19;100335.72;5047855;28;20051;-63
2023/03/22 04:09:40;;;;;;;25.92;15.38;;;;;;;5.70;94.52;100342.13;5047851;28;20483;-62
2023/03/22 04:12:08;;;;;;;22.05;16.05;;;;;;;5.62;94.61;100328.50;5053962;28;20028;-69
2023/03/22 04:14:34;;;;;;;25.48;16.15;;;;;;;5.63;94.76;100332.84;5052497;28;20056;-68
2023/03/22 04:16:59;;;;;;;23.27;15.90;;;;;;;5.61;94.99;100334.75;5058200;28;20383;-69
2023/03/22 04:19:25;;;;;;;20.83;15.27;;;;;;;5.59;94.82;100339.34;5065462;28;20027;-68
2023/03/22 04:21:51;;;;;;;19.90;14.48;;;;;;;5.49;94.84;100324.97;5053031;28;20039;-68
2023/03/22 04:24:18;;;;;;;21.70;15.27;;;;;;;5.54;94.83;100346.75;5062684;28;20024;-69
2023/03/22 04:26:44;;;;;;;25.23;14.73;;;;;;;5.49;94.87;100337.41;5050874;28;20040;-69
2023/03/22 04:29:09;;;;;;;21.35;14.38;;;;;;;5.50;94.85;100347.06;5061104;28;20028;-69
2023/03/22 04:31:35;;;;;;;25.38;16.85;;;;;;;5.41;94.76;100329.91;5050491;28;20020;-68
2023/03/22 04:34:04;;;;;;;20.58;14.93;;;;;;;5.46;94.44;100342.91;5055754;28;20067;-69
2023/03/22 04:36:34;;;;;;;22.02;15.00;;;;;;;5.42;94.13;100344.91;5061739;28;20028;-68
2023/03/22 04:39:00;;;;;;;23.83;16.02;;;;;;;5.35;94.46;100338.31;5048308;28;20036;-68
2023/03/22 04:41:25;;;;;;;23.42;16.60;;;;;;;5.39;94.23;100344.28;5047121;28;20029;-68
2023/03/22 04:43:51;;;;;;;24.27;16.30;;;;;;;5.38;94.96;100350.56;5059904;28;20020;-68
2023/03/22 04:46:16;;;;;;;23.58;15.75;;;;;;;5.38;95.07;100350.56;5048188;28;20497;-69
2023/03/22 04:48:42;;;;;;;29.42;17.13;;;;;;;5.40;95.57;100351.28;5058032;28;20029;-69
2023/03/22 04:51:09;;;;;;;25.08;16.58;;;;;;;5.45;96.79;100362.50;5065558;28;20029;-69
2023/03/22 04:53:38;;;;;;;25.90;17.08;;;;;;;5.53;97.98;100370.81;5059825;28;20386;-69
2023/03/22 04:56:10;;;;;;;26.48;17.27;;;;;;;5.58;99.29;100369.53;5051033;28;20029;-68
2023/03/22 04:58:40;;;;;;;25.10;17.52;;;;;;;5.64;100.00;100369.13;5047148;28;20025;-69
2023/03/22 05:01:06;;;;;;;30.38;18.60;;;;;;;5.71;100.00;100373.09;5063683;28;20016;-69
2023/03/22 05:03:32;;;;;;;25.27;17.00;;;;;;;5.73;99.89;100367.66;5059878;28;20100;-69
2023/03/22 05:06:00;;;;;;;26.05;18.70;;;;;;;5.77;100.00;100379.81;5054226;28;20107;-69
2023/03/22 05:08:27;;;;;;;30.27;18.05;;;;;;;5.82;100.00;100373.28;5053589;28;20032;-68
2023/03/22 05:10:54;;;;;;;25.98;17.33;;;;;;;5.86;100.00;100377.41;5047623;28;20082;-69
2023/03/22 05:13:22;;;;;;;28.77;18.58;;;;;;;5.87;100.00;100372.97;5066680;28;20024;-63
2023/03/22 05:15:48;;;;;;;26.67;18.15;;;;;;;5.98;100.00;100373.94;5058245;28;20380;-63
2023/03/22 05:18:15;;;;;;;25.40;17.23;;;;;;;6.06;100.00;100381.41;5052052;28;20043;-63
2023/03/22 05:20:42;;;;;;;26.45;18.70;;;;;;;6.10;100.00;100383.72;5046561;28;20033;-63
2023/03/22 05:23:08;;;;;;;27.33;18.80;;;;;;;6.16;100.00;100385.97;5047389;28;20052;-63
2023/03/22 05:25:34;;;;;;;27.05;18.45;;;;;;;6.11;100.00;100368.63;5048282;28;20482;-63
2023/03/22 05:28:00;;;;;;;28.67;19.38;;;;;;;6.15;100.00;100362.09;5050036;28;20163;-63
2023/03/22 05:30:30;;;;;;;29.42;19.25;;;;;;;6.30;100.00;100391.22;5051978;28;20109;-64
2023/03/22 05:33:02;;;;;;;24.55;16.75;;;;;;;6.36;100.00;100398.75;5046041;28;20701;-63
2023/03/22 05:35:31;;;;;;;27.42;18.35;;;;;;;6.41;100.00;100399.31;5043594;28;20031;-63
2023/03/22 05:37:57;;;;;;;29.33;19.13;;;;;;;6.41;100.00;100393.13;5059533;28;20118;-64
2023/03/22 05:40:24;;;;;;;26.55;18.60;;;;;;;6.48;100.00;100403.25;5046709;28;20064;-63
2023/03/22 05:42:50;;;;;;;28.02;19.13;;;;;;;6.52;100.00;100394.06;5044961;28;20087;-64
2023/03/22 05:45:15;;;;;;;28.45;18.67;;;;;;;6.54;100.00;100404.63;5045603;28;20467;-63
2023/03/22 05:47:41;;;;;;;30.08;20.00;;;;;;;6.55;100.00;100391.19;5066196;28;20028;-63
2023/03/22 05:50:14;;;;;;;31.88;20.45;;;;;;;6.67;100.00;100392.13;5054631;28;20035;-63
2023/03/22 05:52:41;;;;;;;36.67;21.42;;;;;;;6.80;100.00;100391.16;5046283;28;20025;-63
2023/03/22 05:55:08;;;;;;;30.60;19.23;;;;;;;6.88;100.00;100383.50;5046214;28;20029;-63
2023/03/22 05:57:33;;;;;;;32.13;19.20;;;;;;;7.00;100.00;100381.75;5063874;28;20417;-63
2023/03/22 06:00:00;;;;;;;28.88;18.98;;;;;;;7.13;100.00;100382.56;5065832;28;20494;-63
2023/03/22 06:02:26;;;;;;;30.17;20.65;;;;;;;7.14;100.00;100372.75;5066006;28;20070;-63
2023/03/22 06:04:51;;;;;;;32.03;20.10;;;;;;;7.17;100.00;100354.72;5047972;28;20490;-63
2023/03/22 06:07:17;;;;;;;28.13;19.52;;;;;;;7.39;100.00;100389.53;5061575;28;20089;-64
2023/03/22 06:09:43;;;;;;;29.00;19.98;;;;;;;7.53;100.00;100400.03;5045872;28;20078;-63
2023/03/22 06:12:09;;;;;;;33.65;21.70;;;;;;;7.72;100.00;100413.69;5046311;28;20033;-63
2023/03/22 06:14:35;;;;;;;29.35;19.95;;;;;;;7.87;100.00;100401.84;5044847;28;20102;-63
2023/03/22 06:17:00;;;;;;;36.10;21.13;;;;;;;8.03;100.00;100407.75;5045857;28;20120;-63
2023/03/22 06:19:26;;;;;;;30.73;19.90;;;;;;;8.20;100.00;100404.66;5045510;28;20033;-69
2023/03/22 06:21:53;;;;;;;31.90;20.75;;;;;;;8.36;100.00;100388.31;5052764;28;20035;-69
2023/03/22 06:24:19;;;;;;;32.85;20.33;;;;;;;8.47;100.00;100388.31;5048806;28;20037;-69
2023/03/22 06:26:44;;;;;;;31.90;20.17;;;;;;;8.68;100.00;100397.34;5048092;28;20017;-69
2023/03/22 06:29:10;;;;;;;27.13;19.23;;;;;;;8.85;100.00;100395.03;5048987;28;20056;-69
2023/03/22 06:31:36;;;;;;;28.20;19.17;;;;;;;8.98;99.77;100386.88;5055958;28;20047;-69
2023/03/22 06:34:02;;;;;;;26.67;18.27;;;;;;;9.24;97.60;100399.00;5059056;28;20364;-70
2023/03/22 06:36:28;;;;;;;27.15;17.65;;;;;;;9.46;95.45;100401.66;5048809;28;20041;-70
2023/03/22 06:38:53;;;;;;;25.85;18.05;;;;;;;9.61;93.52;100391.50;5048404;28;20033;-70
2023/03/22 06:41:19;;;;;;;28.42;17.85;;;;;;;9.86;92.87;100402.72;5053909;28;20025;-70
2023/03/22 06:43:45;;;;;;;26.27;17.73;;;;;;;10.12;90.00;100403.25;5062885;28;20406;-69
2023/03/22 06:46:10;;;;;;;27.88;18.17;;;;;;;10.34;87.55;100395.94;5052369;28;20554;-69
2023/03/22 06:48:35;;;;;;;28.75;17.70;;;;;;;10.57;85.32;100396.63;5057656;28;20028;-69
2023/03/22 06:51:01;;;;;;;23.08;15.57;;;;;;;10.80;83.02;100399.00;5065144;28;20019;-69
2023/03/22 06:53:26;;;;;;;27.63;17.17;;;;;;;11.06;79.50;100386.81;5057731;28;20064;-70
2023/03/22 06:55:52;;;;;;;24.30;15.40;;;;;;;11.33;79.19;100392.44;5051494;28;20029;-70
2023/03/22 06:58:17;;;;;;;22.90;15.13;;;;;;;11.57;78.02;100387.53;5058053;28;20047;-70
2023/03/22 07:00:43;;;;;;;27.50;17.50;;;;;;;11.98;74.03;100385.59;5056835;28;20041;-70
2023/03/22 07:03:08;;;;;;;21.38;16.13;;;;;;;12.21;73.46;100393.22;5049779;28;20028;-70
2023/03/22 07:05:33;;;;;;;23.00;15.98;;;;;;;12.45;71.63;100387.38;5050750;28;20055;-70
2023/03/22 07:07:59;;;;;;;22.15;15.23;;;;;;;12.69;69.98;100377.81;5052758;28;20035;-70
2023/03/22 07:10:24;;;;;;;20.50;14.65;;;;;;;12.94;68.35;100382.56;5053775;28;20028;-70
2023/03/22 07:12:50;;;;;;;19.63;14.05;;;;;;;13.21;68.01;100381.72;5052481;28;20082;-70
2023/03/22 07:15:16;;;;;;;19.92;14.80;;;;;;;13.47;67.54;100378.19;5065220;28;20056;-70
2023/03/22 07:17:42;;;;;;;22.65;16.40;;;;;;;13.76;64.31;100375.28;5048224;28;20060;-71
2023/03/22 07:20:08;;;;;;;19.63;13.93;;;;;;;13.93;64.00;100366.34;5053566;28;20517;-70
2023/03/22 07:22:33;;;;;;;21.17;15.02;;;;;;;14.18;63.08;100375.50;5054176;28;20056;-70
2023/03/22 07:24:59;;;;;;;22.70;14.38;;;;;;;14.38;62.15;100379.75;5060969;28;20020;-70
2023/03/22 07:27:24;;;;;;;21.20;14.57;;;;;;;14.57;61.95;100377.69;5052653;28;20049;-70
2023/03/22 07:29:50;;;;;;;20.05;14.75;;;;;;;14.81;61.42;100379.69;5065033;28;20064;-70
2023/03/22 07:32:16;;;;;;;23.45;14.82;;;;;;;14.98;60.15;100366.13;5052267;28;20021;-70
2023/03/22 07:34:41;;;;;;;20.67;14.52;;;;;;;15.37;58.15;100391.66;5068155;28;20036;-70
2023/03/22 07:37:07;;;;;;;19.70;14.70;;;;;;;15.52;57.83;100392.72;5054506;28;20438;-70
2023/03/22 07:39:33;;;;;;;20.00;14.10;;;;;;;15.65;57.92;100392.25;5053022;28;20029;-70
2023/03/22 07:41:59;;;;;;;21.92;13.68;;;;;;;15.87;57.28;100407.84;5040773;28;20041;-71
2023/03/22 07:44:24;;;;;;;19.33;14.07;;;;;;;16.09;56.43;100409.06;5056360;28;20056;-71
2023/03/22 07:46:51;;;;;;;18.60;13.35;;;;;;;16.26;56.09;100410.75;5059431;28;20667;-71
2023/03/22 07:49:17;;;;;;;19.00;12.90;;;;;;;16.51;54.70;100413.31;5050233;28;20150;-70
2023/03/22 07:51:43;;;;;;;20.88;13.13;;;;;;;16.81;53.59;100417.19;5050843;28;20437;-71
2023/03/22 07:54:08;;;;;;;22.55;13.68;;;;;;;17.42;51.35;100414.63;5063538;28;20111;-71
2023/03/22 07:56:34;;;;;;;20.95;13.48;;;;;;;17.74;51.31;100430.78;5055939;28;20363;-71
2023/03/22 07:59:00;;;;;;;17.77;13.27;;;;;;;18.31;49.87;100417.69;5062293;28;20032;-71
2023/03/22 08:01:25;;;;;;;14.85;12.18;;;;;;;19.03;47.04;100422.47;5056281;28;20043;-71
2023/03/22 08:03:51;;;;;;;18.40;12.98;;;;;;;19.61;45.19;100420.59;5058683;28;20024;-71
2023/03/22 08:06:20;;;;;;;17.80;12.50;;;;;;;20.02;44.93;100410.81;5058211;28;20111;-71
2023/03/22 08:08:46;;;;;;;24.10;12.75;;;;;;;20.90;42.87;100413.13;5056160;28;20044;-71
2023/03/22 08:11:12;;;;;;;17.90;12.88;;;;;;;21.68;40.24;100413.63;5056284;28;20032;-65
2023/03/22 08:13:38;;;;;;;14.88;11.35;;;;;;;21.85;40.31;100402.16;5051130;28;20443;-65
2023/03/22 08:16:04;;;;;;;19.00;14.68;;;;;;;21.94;39.75;100409.13;5049113;28;20049;-65
2023/03/22 08:18:30;;;;;;;17.77;12.57;;;;;;;22.08;39.55;100410.00;5050981;28;20389;-65
2023/03/22 08:20:58;;;;;;;20.83;12.27;;;;;;;23.43;37.57;100417.59;5047232;28;20055;-65
2023/03/22 08:23:24;;;;;;;15.10;12.32;;;;;;;24.17;36.76;100422.38;5044194;28;20032;-65
2023/03/22 08:25:50;;;;;;;19.98;12.15;;;;;;;24.05;36.24;100413.16;5047943;28;20104;-65
2023/03/22 08:28:16;;;;;;;13.98;12.20;;;;;;;23.45;37.19;100415.50;5047056;28;20518;-65
2023/03/22 08:30:44;;;;;;;13.50;12.10;;;;;;;23.60;36.98;100413.34;5046077;28;20035;-65
2023/03/22 08:33:10;;;;;;;13.98;11.07;;;;;;;23.86;36.52;100402.28;5045663;28;20035;-65
2023/03/22 08:35:35;;;;;;;15.30;12.18;;;;;;;24.85;34.71;100417.88;5052986;28;20096;-65
2023/03/22 08:38:01;;;;;;;14.30;12.05;;;;;;;24.10;35.28;100402.38;5048097;28;20029;-65
2023/03/22 08:40:26;;;;;;;15.73;11.68;;;;;;;23.94;35.51;100394.69;5046364;28;20043;-65
2023/03/22 08:42:52;;;;;;;13.35;11.02;;;;;;;23.27;36.74;100401.63;5047109;28;20182;-65
2023/03/22 08:45:17;;;;;;;14.63;12.27;;;;;;;23.00;36.94;100409.03;5063818;28;20033;-65
2023/03/22 08:47:44;;;;;;;19.00;12.15;;;;;;;22.66;37.36;100411.19;5046382;28;20029;-65
2023/03/22 08:50:10;;;;;;;15.25;12.30;;;;;;;22.25;38.32;100414.03;5045677;28;20021;-66
2023/03/22 08:52:36;;;;;;;13.60;11.65;;;;;;;23.38;36.73;100401.81;5052604;28;20032;-65
2023/03/22 08:55:02;;;;;;;12.27;10.95;;;;;;;24.72;34.44;100420.75;5055543;28;20036;-65
2023/03/22 08:57:28;;;;;;;12.75;11.45;;;;;;;24.68;34.32;100413.16;5045429;28;20032;-66
2023/03/22 08:59:56;;;;;;;13.90;10.65;;;;;;;24.38;34.73;100394.59;5050667;28;20028;-66
2023/03/22 09:02:23;;;;;;;14.32;10.80;;;;;;;23.97;35.47;100393.38;5060545;28;20033;-66
2023/03/22 09:04:48;;;;;;;15.13;10.48;;;;;;;24.02;35.34;100407.28;5048683;28;20131;-66
2023/03/22 09:07:16;;;;;;;13.55;11.30;;;;;;;23.85;35.47;100395.94;5053202;28;20471;-65
2023/03/22 09:09:42;;;;;;;14.73;10.70;;;;;;;23.67;36.01;100412.25;5046095;28;20056;-66
2023/03/22 09:12:07;;;;;;;13.98;11.45;;;;;;;23.66;35.82;100407.84;5046531;28;20064;-66
2023/03/22 09:14:33;;;;;;;16.58;12.02;;;;;;;23.61;36.09;100402.19;5043837;28;20052;-65
2023/03/22 09:16:59;;;;;;;13.35;10.57;;;;;;;23.63;35.70;100389.09;5046184;28;20036;-66
2023/03/22 09:19:25;;;;;;;13.07;10.38;;;;;;;23.70;35.85;100400.84;5048250;28;20033;-66
2023/03/22 09:21:50;;;;;;;14.25;10.55;;;;;;;23.96;35.35;100384.31;5043025;28;20032;-66
2023/03/22 09:24:16;;;;;;;13.52;10.57;;;;;;;24.33;34.82;100391.69;5050458;28;20028;-66
2023/03/22 09:26:42;;;;;;;11.32;10.10;;;;;;;24.43;34.47;100400.25;5050302;28;20123;-65
2023/03/22 09:29:07;;;;;;;15.40;11.02;;;;;;;24.73;33.85;100359.31;5060406;28;20033;-66
2023/03/22 09:31:32;;;;;;;11.55;10.05;;;;;;;25.75;32.74;100384.19;5051537;28;20029;-66
2023/03/22 09:33:58;;;;;;;9.65;8.32;;;;;;;27.14;30.37;100394.50;5058922;28;20028;-66
2023/03/22 09:36:23;;;;;;;9.85;8.75;;;;;;;27.31;30.10;100389.97;5044996;28;20052;-66
2023/03/22 09:38:49;;;;;;;11.27;7.90;;;;;;;28.30;28.30;100376.59;5056223;28;20055;-66
2023/03/22 09:41:20;;;;;;;10.27;9.27;;;;;;;28.21;28.93;100394.63;5055112;28;20390;-66
2023/03/22 09:44:00;;;;;;;12.98;10.05;;;;;;;27.56;29.61;100382.25;5048115;28;20439;-66
2023/03/22 09:46:35;;;;;;;14.15;10.07;;;;;;;27.07;30.30;100402.06;5053106;28;20028;-66
2023/03/22 09:49:04;;;;;;;13.60;10.18;;;;;;;26.62;30.80;100389.09;5059752;28;20024;-66
2023/03/22 09:51:40;;;;;;;12.85;10.68;;;;;;;25.89;32.06;100391.19;5061730;28;20382;-66
2023/03/22 09:54:33;;;;;;;11.95;9.55;;;;;;;25.19;32.80;100391.78;5048260;28;20032;-66
2023/03/22 09:57:04;;;;;;;13.55;10.10;;;;;;;24.74;33.74;100393.06;5044458;28;20797;-66
2023/03/22 10:00:11;;;;;;;14.02;10.85;;;;;;;24.51;34.51;100387.34;5044063;28;20538;-66
2023/03/22 10:02:44;;;;;;;13.63;10.85;;;;;;;24.26;34.89;100377.19;5043214;28;20037;-66
2023/03/22 10:05:34;;;;;;;12.32;11.02;;;;;;;24.06;34.91;100375.63;5053263;28;20031;-66
2023/03/22 10:08:24;;;;;;;14.10;10.43;;;;;;;23.98;35.10;100374.00;5049157;28;20893;-66
2023/03/22 10:10:51;;;;;;;14.73;10.95;;;;;;;23.83;35.48;100378.88;5051134;28;20047;-66
2023/03/22 10:13:25;;;;;;;15.50;11.55;;;;;;;23.47;35.88;100380.53;5052631;28;20089;-66
2023/03/22 10:16:00;;;;;;;11.82;10.63;;;;;;;23.20;36.25;100377.00;5046299;28;20049;-66
2023/03/22 10:18:46;;;;;;;14.88;11.35;;;;;;;23.21;36.47;100381.41;5043638;28;20040;-65
2023/03/22 10:21:14;;;;;;;14.57;10.60;;;;;;;23.02;36.13;100363.13;5052525;28;20062;-66
2023/03/22 10:23:51;;;;;;;13.25;10.52;;;;;;;22.80;36.64;100375.41;5053595;28;20115;-66
2023/03/22 10:26:30;;;;;;;11.80;10.27;;;;;;;22.38;36.91;100353.06;5053279;28;20103;-66
2023/03/22 10:29:11;;;;;;;11.27;9.35;;;;;;;22.28;37.25;100369.91;5053197;28;20107;-66
2023/03/22 10:31:41;;;;;;;11.25;9.15;;;;;;;22.19;37.46;100361.03;5049910;28;20043;-66
2023/03/22 10:34:26;;;;;;;9.13;8.23;;;;;;;21.99;37.42;100356.63;5054233;28;20036;-66
2023/03/22 10:36:53;;;;;;;11.60;8.07;;;;;;;21.66;36.73;100347.44;5047838;28;20029;-66
2023/03/22 10:39:25;;;;;;;10.55;7.38;;;;;;;21.45;36.80;100363.97;5056485;28;20056;-66
2023/03/22 10:41:53;;;;;;;9.23;8.07;;;;;;;20.97;37.60;100332.22;5054064;28;20016;-66
2023/03/22 10:44:22;;;;;;;12.45;8.80;;;;;;;21.08;37.65;100361.66;5047468;28;20107;-66
2023/03/22 10:46:50;;;;;;;9.07;7.78;;;;;;;21.01;38.29;100352.59;5045175;28;20455;-66
2023/03/22 10:49:24;;;;;;;11.13;7.97;;;;;;;21.17;37.80;100349.53;5053649;28;20040;-66
2023/03/22 10:51:56;;;;;;;9.05;7.32;;;;;;;21.03;38.21;100336.88;5050933;28;20041;-66
2023/03/22 10:54:24;;;;;;;9.98;7.40;;;;;;;20.88;38.41;100330.66;5050809;28;20063;-66
2023/03/22 10:56:49;;;;;;;11.65;7.82;;;;;;;20.63;38.89;100330.28;5049616;28;20547;-66
2023/03/22 10:59:46;;;;;;;8.68;7.78;;;;;;;20.57;38.92;100352.88;5045868;28;20024;-66
2023/03/22 11:02:23;;;;;;;13.32;8.40;;;;;;;20.88;38.02;100344.31;5048431;28;20502;-66
2023/03/22 11:04:55;;;;;;;12.18;8.27;;;;;;;20.65;38.87;100333.69;5053034;28;20680;-66
2023/03/22 11:07:36;;;;;;;9.57;7.95;;;;;;;20.63;38.37;100327.56;5062810;28;20082;-65
2023/03/22 11:10:07;;;;;;;8.50;7.28;;;;;;;20.48;38.65;100336.91;5059697;28;20466;-65
2023/03/22 11:12:53;;;;;;;11.40;6.75;;;;;;;20.30;37.94;100323.75;5060481;28;20076;-65
2023/03/22 11:15:25;;;;;;;8.00;5.80;;;;;;;20.36;37.37;100322.97;5058050;28;20041;-65
2023/03/22 11:17:53;;;;;;;7.57;5.90;;;;;;;20.23;37.75;100328.31;5054158;28;20032;-68
2023/03/22 11:20:19;;;;;;;9.02;6.55;;;;;;;20.11;38.15;100319.84;5054536;28;20442;-65
2023/03/22 11:22:46;;;;;;;7.07;6.05;;;;;;;20.10;38.27;100320.84;5054325;28;20040;-65
2023/03/22 11:25:29;;;;;;;8.02;6.40;;;;;;;20.04;38.39;100324.34;5052443;28;20025;-65